sensor_id;sensor_type;location;lat;lon;timestamp;temperature;humidity
20574;DHT22;10445;50.216;7.912;2023-06-26T00:01:46;21.20;1.00
20574;DHT22;10445;50.216;7.912;2023-06-26T01:01:48;20.20;1.00
20574;DHT22;10445;50.216;7.912;2023-06-26T02:35:21;20.00;1.00
20574;DHT22;10445;50.216;7.912;2023-06-26T02:37:51;19.90;1.00
20574;DHT22;10445;50.216;7.912;2023-06-26T02:40:21;19.90;1.00
20574;DHT22;10445;50.216;7.912;2023-06-26T02:42:51;19.90;1.00
20574;DHT22;10445;50.216;7.912;2023-06-26T02:45:20;19.80;1.00
20574;DHT22;10445;50.216;7.912;2023-06-26T02:47:50;19.70;1.00
20574;DHT22;10445;50.216;7.912;2023-06-26T02:50:21;19.70;1.00
20574;DHT22;10445;50.216;7.912;2023-06-26T02:52:49;19.60;1.00
20574;DHT22;10445;50.216;7.912;2023-06-26T02:55:19;19.50;1.00
20574;DHT22;10445;50.216;7.912;2023-06-26T02:57:49;19.50;1.00
20574;DHT22;10445;50.216;7.912;2023-06-26T03:00:21;19.40;1.00
20574;DHT22;10445;50.216;7.912;2023-06-26T03:03:01;19.30;1.00
20574;DHT22;10445;50.216;7.912;2023-06-26T03:06:05;19.30;1.00
20574;DHT22;10445;50.216;7.912;2023-06-26T04:20:41;20.40;1.00
20574;DHT22;10445;50.216;7.912;2023-06-26T04:23:31;20.30;1.00
20574;DHT22;10445;50.216;7.912;2023-06-26T04:26:00;20.10;1.00
20574;DHT22;10445;50.216;7.912;2023-06-26T04:28:30;20.00;1.00
20574;DHT22;10445;50.216;7.912;2023-06-26T04:31:01;20.00;1.00
20574;DHT22;10445;50.216;7.912;2023-06-26T04:33:31;20.00;1.00
20574;DHT22;10445;50.216;7.912;2023-06-26T04:36:02;20.00;1.00
20574;DHT22;10445;50.216;7.912;2023-06-26T04:38:32;20.00;1.00
20574;DHT22;10445;50.216;7.912;2023-06-26T04:41:03;20.20;1.00
20574;DHT22;10445;50.216;7.912;2023-06-26T04:43:43;20.30;1.00
20574;DHT22;10445;50.216;7.912;2023-06-26T04:46:14;20.40;1.00
20574;DHT22;10445;50.216;7.912;2023-06-26T04:48:43;20.50;1.00
20574;DHT22;10445;50.216;7.912;2023-06-26T04:51:14;20.60;1.00
20574;DHT22;10445;50.216;7.912;2023-06-26T04:53:43;20.50;1.00
20574;DHT22;10445;50.216;7.912;2023-06-26T04:56:12;20.50;1.00
20574;DHT22;10445;50.216;7.912;2023-06-26T04:58:41;20.50;1.00
20574;DHT22;10445;50.216;7.912;2023-06-26T05:01:10;20.50;1.00
20574;DHT22;10445;50.216;7.912;2023-06-26T05:03:40;20.50;1.00
20574;DHT22;10445;50.216;7.912;2023-06-26T05:06:09;20.40;1.00
20574;DHT22;10445;50.216;7.912;2023-06-26T05:08:39;20.50;1.00
20574;DHT22;10445;50.216;7.912;2023-06-26T05:11:08;20.40;1.00
20574;DHT22;10445;50.216;7.912;2023-06-26T05:13:36;20.50;1.00
20574;DHT22;10445;50.216;7.912;2023-06-26T05:16:06;20.50;1.00
20574;DHT22;10445;50.216;7.912;2023-06-26T05:18:36;20.70;1.00
20574;DHT22;10445;50.216;7.912;2023-06-26T05:21:06;20.80;1.00
20574;DHT22;10445;50.216;7.912;2023-06-26T05:23:35;20.80;1.00
20574;DHT22;10445;50.216;7.912;2023-06-26T05:26:06;20.90;1.00
20574;DHT22;10445;50.216;7.912;2023-06-26T05:28:34;21.00;1.00
20574;DHT22;10445;50.216;7.912;2023-06-26T05:31:03;21.10;1.00
20574;DHT22;10445;50.216;7.912;2023-06-26T05:33:35;21.20;1.00
20574;DHT22;10445;50.216;7.912;2023-06-26T05:36:04;21.30;1.00
20574;DHT22;10445;50.216;7.912;2023-06-26T05:38:34;21.30;1.00
20574;DHT22;10445;50.216;7.912;2023-06-26T05:41:04;21.40;1.00
20574;DHT22;10445;50.216;7.912;2023-06-26T05:43:33;21.60;1.00
20574;DHT22;10445;50.216;7.912;2023-06-26T05:46:01;21.80;1.00
20574;DHT22;10445;50.216;7.912;2023-06-26T05:48:30;21.90;1.00
20574;DHT22;10445;50.216;7.912;2023-06-26T05:50:59;22.10;1.00
20574;DHT22;10445;50.216;7.912;2023-06-26T05:53:28;22.20;1.00
20574;DHT22;10445;50.216;7.912;2023-06-26T05:55:57;22.40;1.00
20574;DHT22;10445;50.216;7.912;2023-06-26T05:58:28;22.60;1.00
20574;DHT22;10445;50.216;7.912;2023-06-26T06:00:56;22.80;1.00
20574;DHT22;10445;50.216;7.912;2023-06-26T06:03:25;23.00;1.00
20574;DHT22;10445;50.216;7.912;2023-06-26T06:05:53;23.10;1.00
20574;DHT22;10445;50.216;7.912;2023-06-26T06:08:22;23.30;1.00
20574;DHT22;10445;50.216;7.912;2023-06-26T06:10:50;23.50;1.00
20574;DHT22;10445;50.216;7.912;2023-06-26T06:13:19;23.60;1.00
20574;DHT22;10445;50.216;7.912;2023-06-26T06:15:49;23.70;1.00
20574;DHT22;10445;50.216;7.912;2023-06-26T06:18:17;23.80;1.00
20574;DHT22;10445;50.216;7.912;2023-06-26T06:20:46;23.90;1.00
20574;DHT22;10445;50.216;7.912;2023-06-26T06:23:14;24.10;1.00
20574;DHT22;10445;50.216;7.912;2023-06-26T06:25:43;24.20;1.00
20574;DHT22;10445;50.216;7.912;2023-06-26T06:28:11;24.20;1.00
20574;DHT22;10445;50.216;7.912;2023-06-26T06:30:43;24.30;1.00
20574;DHT22;10445;50.216;7.912;2023-06-26T06:33:14;24.30;1.00
20574;DHT22;10445;50.216;7.912;2023-06-26T06:35:42;24.40;1.00
20574;DHT22;10445;50.216;7.912;2023-06-26T06:38:11;24.50;1.00
20574;DHT22;10445;50.216;7.912;2023-06-26T06:40:40;24.40;1.00
20574;DHT22;10445;50.216;7.912;2023-06-26T06:43:08;24.40;1.00
20574;DHT22;10445;50.216;7.912;2023-06-26T06:45:36;24.50;1.00
20574;DHT22;10445;50.216;7.912;2023-06-26T06:48:05;24.40;1.00
20574;DHT22;10445;50.216;7.912;2023-06-26T06:50:35;24.40;1.00
20574;DHT22;10445;50.216;7.912;2023-06-26T06:53:04;24.40;1.00
20574;DHT22;10445;50.216;7.912;2023-06-26T06:55:33;24.20;1.00
20574;DHT22;10445;50.216;7.912;2023-06-26T06:58:02;24.10;1.00
20574;DHT22;10445;50.216;7.912;2023-06-26T07:00:32;24.10;1.00
20574;DHT22;10445;50.216;7.912;2023-06-26T07:03:00;24.20;1.00
20574;DHT22;10445;50.216;7.912;2023-06-26T07:05:29;24.30;1.00
20574;DHT22;10445;50.216;7.912;2023-06-26T07:07:59;24.30;1.00
20574;DHT22;10445;50.216;7.912;2023-06-26T07:10:28;24.20;1.00
20574;DHT22;10445;50.216;7.912;2023-06-26T07:12:57;24.20;1.00
20574;DHT22;10445;50.216;7.912;2023-06-26T07:15:25;24.20;1.00
20574;DHT22;10445;50.216;7.912;2023-06-26T07:17:54;24.40;1.00
20574;DHT22;10445;50.216;7.912;2023-06-26T07:20:22;24.40;1.00
20574;DHT22;10445;50.216;7.912;2023-06-26T07:22:52;24.30;1.00
20574;DHT22;10445;50.216;7.912;2023-06-26T07:25:22;24.10;1.00
20574;DHT22;10445;50.216;7.912;2023-06-26T07:27:50;23.80;1.00
20574;DHT22;10445;50.216;7.912;2023-06-26T07:30:19;23.90;1.00
20574;DHT22;10445;50.216;7.912;2023-06-26T07:32:47;24.00;1.00
20574;DHT22;10445;50.216;7.912;2023-06-26T07:35:16;24.10;1.00
20574;DHT22;10445;50.216;7.912;2023-06-26T07:37:45;24.10;1.00
20574;DHT22;10445;50.216;7.912;2023-06-26T07:40:15;24.10;1.00
20574;DHT22;10445;50.216;7.912;2023-06-26T07:42:47;24.00;1.00
20574;DHT22;10445;50.216;7.912;2023-06-26T07:45:16;24.10;1.00
20574;DHT22;10445;50.216;7.912;2023-06-26T07:47:46;24.10;1.00
20574;DHT22;10445;50.216;7.912;2023-06-26T07:50:16;24.00;1.00
20574;DHT22;10445;50.216;7.912;2023-06-26T07:52:48;24.00;1.00
20574;DHT22;10445;50.216;7.912;2023-06-26T07:55:19;24.20;1.00
20574;DHT22;10445;50.216;7.912;2023-06-26T07:57:49;24.30;1.00
20574;DHT22;10445;50.216;7.912;2023-06-26T08:00:19;24.20;1.00
20574;DHT22;10445;50.216;7.912;2023-06-26T08:02:47;24.10;1.00
20574;DHT22;10445;50.216;7.912;2023-06-26T08:05:16;23.90;1.00
20574;DHT22;10445;50.216;7.912;2023-06-26T08:07:45;23.80;1.00
20574;DHT22;10445;50.216;7.912;2023-06-26T08:10:14;23.60;1.00
20574;DHT22;10445;50.216;7.912;2023-06-26T08:12:43;23.60;1.00
20574;DHT22;10445;50.216;7.912;2023-06-26T08:15:14;23.70;1.00
20574;DHT22;10445;50.216;7.912;2023-06-26T08:17:43;23.90;1.00
20574;DHT22;10445;50.216;7.912;2023-06-26T08:20:13;24.10;1.00
20574;DHT22;10445;50.216;7.912;2023-06-26T08:22:42;24.20;1.00
20574;DHT22;10445;50.216;7.912;2023-06-26T08:25:11;24.40;1.00
20574;DHT22;10445;50.216;7.912;2023-06-26T08:27:39;24.30;1.00
20574;DHT22;10445;50.216;7.912;2023-06-26T08:30:09;24.20;1.00
20574;DHT22;10445;50.216;7.912;2023-06-26T08:32:39;24.20;1.00
20574;DHT22;10445;50.216;7.912;2023-06-26T08:35:08;24.00;1.00
20574;DHT22;10445;50.216;7.912;2023-06-26T08:37:37;23.90;1.00
20574;DHT22;10445;50.216;7.912;2023-06-26T08:40:07;23.90;1.00
20574;DHT22;10445;50.216;7.912;2023-06-26T08:42:36;23.90;1.00
20574;DHT22;10445;50.216;7.912;2023-06-26T08:45:05;24.00;1.00
20574;DHT22;10445;50.216;7.912;2023-06-26T08:47:35;24.00;1.00
20574;DHT22;10445;50.216;7.912;2023-06-26T08:50:10;24.10;1.00
20574;DHT22;10445;50.216;7.912;2023-06-26T08:52:43;24.10;1.00
20574;DHT22;10445;50.216;7.912;2023-06-26T08:55:15;24.10;1.00
20574;DHT22;10445;50.216;7.912;2023-06-26T08:57:44;24.10;1.00
20574;DHT22;10445;50.216;7.912;2023-06-26T09:00:15;24.20;1.00
20574;DHT22;10445;50.216;7.912;2023-06-26T09:02:45;24.30;1.00
20574;DHT22;10445;50.216;7.912;2023-06-26T09:05:15;24.40;1.00
20574;DHT22;10445;50.216;7.912;2023-06-26T09:07:44;24.30;1.00
20574;DHT22;10445;50.216;7.912;2023-06-26T09:10:12;24.40;1.00
20574;DHT22;10445;50.216;7.912;2023-06-26T09:12:41;24.20;1.00
20574;DHT22;10445;50.216;7.912;2023-06-26T09:15:15;24.20;1.00
20574;DHT22;10445;50.216;7.912;2023-06-26T09:17:44;24.20;1.00
20574;DHT22;10445;50.216;7.912;2023-06-26T09:20:16;24.40;1.00
20574;DHT22;10445;50.216;7.912;2023-06-26T09:22:47;24.40;1.00
20574;DHT22;10445;50.216;7.912;2023-06-26T09:25:17;24.60;1.00
20574;DHT22;10445;50.216;7.912;2023-06-26T09:27:49;24.50;1.00
20574;DHT22;10445;50.216;7.912;2023-06-26T09:30:18;24.60;1.00
20574;DHT22;10445;50.216;7.912;2023-06-26T09:32:47;24.60;1.00
20574;DHT22;10445;50.216;7.912;2023-06-26T09:35:19;24.50;1.00
20574;DHT22;10445;50.216;7.912;2023-06-26T09:37:47;24.60;1.00
20574;DHT22;10445;50.216;7.912;2023-06-26T09:40:16;24.80;1.00
20574;DHT22;10445;50.216;7.912;2023-06-26T09:42:44;25.00;1.00
20574;DHT22;10445;50.216;7.912;2023-06-26T09:45:19;25.00;1.00
20574;DHT22;10445;50.216;7.912;2023-06-26T09:47:48;25.00;1.00
20574;DHT22;10445;50.216;7.912;2023-06-26T09:50:23;25.10;1.00
20574;DHT22;10445;50.216;7.912;2023-06-26T09:52:54;25.10;1.00
20574;DHT22;10445;50.216;7.912;2023-06-26T09:55:26;25.00;1.00
20574;DHT22;10445;50.216;7.912;2023-06-26T09:57:57;25.20;1.00
20574;DHT22;10445;50.216;7.912;2023-06-26T10:00:30;25.50;1.00
20574;DHT22;10445;50.216;7.912;2023-06-26T10:02:59;25.70;1.00
20574;DHT22;10445;50.216;7.912;2023-06-26T10:05:29;25.70;1.00
20574;DHT22;10445;50.216;7.912;2023-06-26T10:07:59;25.60;1.00
20574;DHT22;10445;50.216;7.912;2023-06-26T10:10:28;25.60;1.00
20574;DHT22;10445;50.216;7.912;2023-06-26T10:13:01;25.40;1.00
20574;DHT22;10445;50.216;7.912;2023-06-26T10:15:32;25.20;1.00
20574;DHT22;10445;50.216;7.912;2023-06-26T10:18:02;25.00;1.00
20574;DHT22;10445;50.216;7.912;2023-06-26T10:20:34;25.00;1.00
20574;DHT22;10445;50.216;7.912;2023-06-26T10:23:05;25.00;1.00
20574;DHT22;10445;50.216;7.912;2023-06-26T10:25:37;25.00;1.00
20574;DHT22;10445;50.216;7.912;2023-06-26T10:28:09;25.10;1.00
20574;DHT22;10445;50.216;7.912;2023-06-26T10:30:39;25.20;1.00
20574;DHT22;10445;50.216;7.912;2023-06-26T10:33:08;25.40;1.00
20574;DHT22;10445;50.216;7.912;2023-06-26T10:35:43;25.60;1.00
20574;DHT22;10445;50.216;7.912;2023-06-26T10:38:12;25.70;1.00
20574;DHT22;10445;50.216;7.912;2023-06-26T10:40:41;25.70;1.00
20574;DHT22;10445;50.216;7.912;2023-06-26T10:43:12;25.70;1.00
20574;DHT22;10445;50.216;7.912;2023-06-26T10:45:45;25.70;1.00
20574;DHT22;10445;50.216;7.912;2023-06-26T10:48:15;25.80;1.00
20574;DHT22;10445;50.216;7.912;2023-06-26T10:50:47;25.80;1.00
20574;DHT22;10445;50.216;7.912;2023-06-26T10:53:22;25.80;1.00
20574;DHT22;10445;50.216;7.912;2023-06-26T10:55:59;25.70;1.00
20574;DHT22;10445;50.216;7.912;2023-06-26T10:58:41;25.50;1.00
20574;DHT22;10445;50.216;7.912;2023-06-26T11:01:21;25.50;1.00
20574;DHT22;10445;50.216;7.912;2023-06-26T11:04:03;25.40;1.00
20574;DHT22;10445;50.216;7.912;2023-06-26T11:06:34;25.40;1.00
20574;DHT22;10445;50.216;7.912;2023-06-26T11:09:07;25.40;1.00
20574;DHT22;10445;50.216;7.912;2023-06-26T11:12:00;25.20;1.00
20574;DHT22;10445;50.216;7.912;2023-06-26T11:14:35;25.00;1.00
20574;DHT22;10445;50.216;7.912;2023-06-26T11:17:04;24.90;1.00
20574;DHT22;10445;50.216;7.912;2023-06-26T11:19:33;24.70;1.00
20574;DHT22;10445;50.216;7.912;2023-06-26T11:22:04;24.70;1.00
20574;DHT22;10445;50.216;7.912;2023-06-26T11:24:33;24.80;1.00
20574;DHT22;10445;50.216;7.912;2023-06-26T11:27:02;25.00;1.00
20574;DHT22;10445;50.216;7.912;2023-06-26T11:29:34;25.10;1.00
20574;DHT22;10445;50.216;7.912;2023-06-26T11:32:04;25.10;1.00
20574;DHT22;10445;50.216;7.912;2023-06-26T11:34:34;25.00;1.00
20574;DHT22;10445;50.216;7.912;2023-06-26T11:37:06;25.00;1.00
20574;DHT22;10445;50.216;7.912;2023-06-26T11:39:35;25.10;1.00
20574;DHT22;10445;50.216;7.912;2023-06-26T11:42:05;25.30;1.00
20574;DHT22;10445;50.216;7.912;2023-06-26T11:44:40;25.20;1.00
20574;DHT22;10445;50.216;7.912;2023-06-26T11:47:13;25.10;1.00
20574;DHT22;10445;50.216;7.912;2023-06-26T11:49:45;25.10;1.00
20574;DHT22;10445;50.216;7.912;2023-06-26T11:52:16;25.00;1.00
20574;DHT22;10445;50.216;7.912;2023-06-26T11:54:44;25.20;1.00
20574;DHT22;10445;50.216;7.912;2023-06-26T11:57:15;25.10;1.00
20574;DHT22;10445;50.216;7.912;2023-06-26T11:59:44;25.10;1.00
20574;DHT22;10445;50.216;7.912;2023-06-26T12:02:14;25.00;1.00
20574;DHT22;10445;50.216;7.912;2023-06-26T12:04:44;25.10;1.00
20574;DHT22;10445;50.216;7.912;2023-06-26T12:07:15;25.10;1.00
20574;DHT22;10445;50.216;7.912;2023-06-26T12:09:46;25.10;1.00
20574;DHT22;10445;50.216;7.912;2023-06-26T12:12:17;25.00;1.00
20574;DHT22;10445;50.216;7.912;2023-06-26T12:14:46;24.90;1.00
20574;DHT22;10445;50.216;7.912;2023-06-26T12:17:15;24.80;1.00
20574;DHT22;10445;50.216;7.912;2023-06-26T12:19:44;24.70;1.00
20574;DHT22;10445;50.216;7.912;2023-06-26T12:22:17;24.70;1.00
20574;DHT22;10445;50.216;7.912;2023-06-26T12:24:46;24.80;1.00
20574;DHT22;10445;50.216;7.912;2023-06-26T12:27:17;24.90;1.00
20574;DHT22;10445;50.216;7.912;2023-06-26T12:29:50;25.00;1.00
20574;DHT22;10445;50.216;7.912;2023-06-26T12:32:19;25.00;1.00
20574;DHT22;10445;50.216;7.912;2023-06-26T12:34:49;24.90;1.00
20574;DHT22;10445;50.216;7.912;2023-06-26T12:37:19;24.90;1.00
20574;DHT22;10445;50.216;7.912;2023-06-26T12:39:49;24.90;1.00
20574;DHT22;10445;50.216;7.912;2023-06-26T12:42:19;24.80;1.00
20574;DHT22;10445;50.216;7.912;2023-06-26T12:44:48;24.80;1.00
20574;DHT22;10445;50.216;7.912;2023-06-26T12:47:17;25.00;1.00
20574;DHT22;10445;50.216;7.912;2023-06-26T12:49:50;24.90;1.00
20574;DHT22;10445;50.216;7.912;2023-06-26T12:52:21;24.90;1.00
20574;DHT22;10445;50.216;7.912;2023-06-26T12:54:52;25.00;1.00
20574;DHT22;10445;50.216;7.912;2023-06-26T12:57:21;25.10;1.00
20574;DHT22;10445;50.216;7.912;2023-06-26T12:59:50;25.20;1.00
20574;DHT22;10445;50.216;7.912;2023-06-26T13:02:19;25.30;1.00
20574;DHT22;10445;50.216;7.912;2023-06-26T13:04:47;25.30;1.00
20574;DHT22;10445;50.216;7.912;2023-06-26T13:07:16;25.20;1.00
20574;DHT22;10445;50.216;7.912;2023-06-26T13:09:46;25.10;1.00
20574;DHT22;10445;50.216;7.912;2023-06-26T13:12:16;24.90;1.00
20574;DHT22;10445;50.216;7.912;2023-06-26T13:14:45;24.80;1.00
20574;DHT22;10445;50.216;7.912;2023-06-26T13:17:15;24.90;1.00
20574;DHT22;10445;50.216;7.912;2023-06-26T13:19:43;24.90;1.00
20574;DHT22;10445;50.216;7.912;2023-06-26T13:22:12;25.00;1.00
20574;DHT22;10445;50.216;7.912;2023-06-26T13:24:40;25.10;1.00
20574;DHT22;10445;50.216;7.912;2023-06-26T13:27:10;25.10;1.00
20574;DHT22;10445;50.216;7.912;2023-06-26T13:29:39;25.10;1.00
20574;DHT22;10445;50.216;7.912;2023-06-26T13:32:08;25.20;1.00
20574;DHT22;10445;50.216;7.912;2023-06-26T13:34:36;25.30;1.00
20574;DHT22;10445;50.216;7.912;2023-06-26T13:37:05;25.40;1.00
20574;DHT22;10445;50.216;7.912;2023-06-26T13:39:34;25.40;1.00
20574;DHT22;10445;50.216;7.912;2023-06-26T13:42:02;25.50;1.00
20574;DHT22;10445;50.216;7.912;2023-06-26T13:44:33;25.30;1.00
20574;DHT22;10445;50.216;7.912;2023-06-26T13:47:21;25.00;1.00
20574;DHT22;10445;50.216;7.912;2023-06-26T13:49:50;24.70;1.00
20574;DHT22;10445;50.216;7.912;2023-06-26T13:52:18;24.60;1.00
20574;DHT22;10445;50.216;7.912;2023-06-26T13:54:47;24.70;1.00
20574;DHT22;10445;50.216;7.912;2023-06-26T13:57:15;24.60;1.00
20574;DHT22;10445;50.216;7.912;2023-06-26T13:59:45;24.60;1.00
20574;DHT22;10445;50.216;7.912;2023-06-26T14:02:14;24.80;1.00
20574;DHT22;10445;50.216;7.912;2023-06-26T14:04:43;24.90;1.00
20574;DHT22;10445;50.216;7.912;2023-06-26T14:07:12;24.90;1.00
20574;DHT22;10445;50.216;7.912;2023-06-26T14:09:41;24.90;1.00
20574;DHT22;10445;50.216;7.912;2023-06-26T14:12:10;24.90;1.00
20574;DHT22;10445;50.216;7.912;2023-06-26T14:14:38;24.90;1.00
20574;DHT22;10445;50.216;7.912;2023-06-26T14:17:08;24.70;1.00
20574;DHT22;10445;50.216;7.912;2023-06-26T14:19:42;24.60;1.00
20574;DHT22;10445;50.216;7.912;2023-06-26T14:22:13;24.60;1.00
20574;DHT22;10445;50.216;7.912;2023-06-26T14:24:41;24.50;1.00
20574;DHT22;10445;50.216;7.912;2023-06-26T14:27:10;24.50;1.00
20574;DHT22;10445;50.216;7.912;2023-06-26T14:29:38;24.70;1.00
20574;DHT22;10445;50.216;7.912;2023-06-26T14:32:08;24.90;1.00
20574;DHT22;10445;50.216;7.912;2023-06-26T14:34:37;24.90;1.00
20574;DHT22;10445;50.216;7.912;2023-06-26T14:37:05;24.70;1.00
20574;DHT22;10445;50.216;7.912;2023-06-26T14:39:34;24.60;1.00
20574;DHT22;10445;50.216;7.912;2023-06-26T14:42:04;24.70;1.00
20574;DHT22;10445;50.216;7.912;2023-06-26T14:44:33;25.00;1.00
20574;DHT22;10445;50.216;7.912;2023-06-26T14:47:02;25.00;1.00
20574;DHT22;10445;50.216;7.912;2023-06-26T14:49:32;25.00;1.00
20574;DHT22;10445;50.216;7.912;2023-06-26T14:52:01;24.80;1.00
20574;DHT22;10445;50.216;7.912;2023-06-26T14:54:30;24.70;1.00
20574;DHT22;10445;50.216;7.912;2023-06-26T14:56:59;24.70;1.00
20574;DHT22;10445;50.216;7.912;2023-06-26T14:59:28;24.70;1.00
20574;DHT22;10445;50.216;7.912;2023-06-26T15:01:56;24.70;1.00
20574;DHT22;10445;50.216;7.912;2023-06-26T15:04:25;24.70;1.00
20574;DHT22;10445;50.216;7.912;2023-06-26T15:06:57;24.70;1.00
20574;DHT22;10445;50.216;7.912;2023-06-26T15:09:26;24.70;1.00
20574;DHT22;10445;50.216;7.912;2023-06-26T15:11:54;24.70;1.00
20574;DHT22;10445;50.216;7.912;2023-06-26T15:14:22;24.70;1.00
20574;DHT22;10445;50.216;7.912;2023-06-26T15:16:51;24.70;1.00
20574;DHT22;10445;50.216;7.912;2023-06-26T15:19:19;24.50;1.00
20574;DHT22;10445;50.216;7.912;2023-06-26T15:21:48;24.50;1.00
20574;DHT22;10445;50.216;7.912;2023-06-26T15:24:18;24.50;1.00
20574;DHT22;10445;50.216;7.912;2023-06-26T15:26:46;24.40;1.00
20574;DHT22;10445;50.216;7.912;2023-06-26T15:29:15;24.30;1.00
20574;DHT22;10445;50.216;7.912;2023-06-26T15:31:44;24.30;1.00
20574;DHT22;10445;50.216;7.912;2023-06-26T15:34:13;24.30;1.00
20574;DHT22;10445;50.216;7.912;2023-06-26T15:36:41;24.40;1.00
20574;DHT22;10445;50.216;7.912;2023-06-26T15:39:10;24.40;1.00
20574;DHT22;10445;50.216;7.912;2023-06-26T15:41:40;24.20;1.00
20574;DHT22;10445;50.216;7.912;2023-06-26T15:44:09;24.20;1.00
20574;DHT22;10445;50.216;7.912;2023-06-26T15:46:37;24.20;1.00
20574;DHT22;10445;50.216;7.912;2023-06-26T15:49:05;24.20;1.00
20574;DHT22;10445;50.216;7.912;2023-06-26T15:51:34;24.10;1.00
20574;DHT22;10445;50.216;7.912;2023-06-26T15:54:04;24.10;1.00
20574;DHT22;10445;50.216;7.912;2023-06-26T15:56:33;23.90;1.00
20574;DHT22;10445;50.216;7.912;2023-06-26T15:59:03;23.70;1.00
20574;DHT22;10445;50.216;7.912;2023-06-26T16:01:31;23.50;1.00
20574;DHT22;10445;50.216;7.912;2023-06-26T16:04:00;23.40;1.00
20574;DHT22;10445;50.216;7.912;2023-06-26T16:06:28;23.30;1.00
20574;DHT22;10445;50.216;7.912;2023-06-26T16:08:57;23.30;1.00
20574;DHT22;10445;50.216;7.912;2023-06-26T16:11:25;23.30;1.00
20574;DHT22;10445;50.216;7.912;2023-06-26T16:13:54;23.40;1.00
20574;DHT22;10445;50.216;7.912;2023-06-26T16:16:26;23.40;1.00
20574;DHT22;10445;50.216;7.912;2023-06-26T16:18:56;23.30;1.00
20574;DHT22;10445;50.216;7.912;2023-06-26T16:21:24;23.20;1.00
20574;DHT22;10445;50.216;7.912;2023-06-26T16:23:53;23.10;1.00
20574;DHT22;10445;50.216;7.912;2023-06-26T16:26:21;23.10;1.00
20574;DHT22;10445;50.216;7.912;2023-06-26T16:28:50;23.10;1.00
20574;DHT22;10445;50.216;7.912;2023-06-26T16:31:18;23.10;1.00
20574;DHT22;10445;50.216;7.912;2023-06-26T16:33:48;23.10;1.00
20574;DHT22;10445;50.216;7.912;2023-06-26T16:36:17;23.10;1.00
20574;DHT22;10445;50.216;7.912;2023-06-26T16:38:45;23.10;1.00
20574;DHT22;10445;50.216;7.912;2023-06-26T16:41:15;23.00;1.00
20574;DHT22;10445;50.216;7.912;2023-06-26T16:43:44;22.80;1.00
20574;DHT22;10445;50.216;7.912;2023-06-26T16:46:12;22.60;1.00
20574;DHT22;10445;50.216;7.912;2023-06-26T16:48:41;22.50;1.00
20574;DHT22;10445;50.216;7.912;2023-06-26T16:51:10;22.60;1.00
20574;DHT22;10445;50.216;7.912;2023-06-26T16:53:39;22.70;1.00
20574;DHT22;10445;50.216;7.912;2023-06-26T16:56:07;22.70;1.00
20574;DHT22;10445;50.216;7.912;2023-06-26T16:58:36;22.60;1.00
20574;DHT22;10445;50.216;7.912;2023-06-26T17:01:05;22.50;1.00
20574;DHT22;10445;50.216;7.912;2023-06-26T17:03:33;22.40;1.00
20574;DHT22;10445;50.216;7.912;2023-06-26T17:06:03;22.30;1.00
20574;DHT22;10445;50.216;7.912;2023-06-26T17:08:36;22.30;1.00
20574;DHT22;10445;50.216;7.912;2023-06-26T17:11:05;22.20;1.00
20574;DHT22;10445;50.216;7.912;2023-06-26T17:13:34;22.20;1.00
20574;DHT22;10445;50.216;7.912;2023-06-26T17:16:04;22.20;1.00
20574;DHT22;10445;50.216;7.912;2023-06-26T17:18:36;22.10;1.00
20574;DHT22;10445;50.216;7.912;2023-06-26T17:21:08;22.00;1.00
20574;DHT22;10445;50.216;7.912;2023-06-26T17:23:43;22.00;1.00
20574;DHT22;10445;50.216;7.912;2023-06-26T17:26:13;21.90;1.00
20574;DHT22;10445;50.216;7.912;2023-06-26T17:28:42;21.90;1.00
20574;DHT22;10445;50.216;7.912;2023-06-26T17:31:12;21.80;1.00
20574;DHT22;10445;50.216;7.912;2023-06-26T17:33:42;21.70;1.00
20574;DHT22;10445;50.216;7.912;2023-06-26T17:36:12;21.50;1.00
20574;DHT22;10445;50.216;7.912;2023-06-26T17:38:49;21.40;1.00
20574;DHT22;10445;50.216;7.912;2023-06-26T17:41:21;21.40;1.00
20574;DHT22;10445;50.216;7.912;2023-06-26T17:43:51;21.20;1.00
20574;DHT22;10445;50.216;7.912;2023-06-26T17:46:22;21.20;1.00
20574;DHT22;10445;50.216;7.912;2023-06-26T17:48:51;21.10;1.00
20574;DHT22;10445;50.216;7.912;2023-06-26T17:51:24;21.00;1.00
20574;DHT22;10445;50.216;7.912;2023-06-26T17:54:12;21.00;1.00
20574;DHT22;10445;50.216;7.912;2023-06-26T17:56:46;21.00;1.00
20574;DHT22;10445;50.216;7.912;2023-06-26T17:59:17;21.00;1.00
20574;DHT22;10445;50.216;7.912;2023-06-26T18:01:52;20.90;1.00
20574;DHT22;10445;50.216;7.912;2023-06-26T18:04:24;20.90;1.00
20574;DHT22;10445;50.216;7.912;2023-06-26T18:06:54;20.80;1.00
20574;DHT22;10445;50.216;7.912;2023-06-26T18:09:27;20.80;1.00
20574;DHT22;10445;50.216;7.912;2023-06-26T18:11:57;20.80;1.00
20574;DHT22;10445;50.216;7.912;2023-06-26T18:14:31;20.80;1.00
20574;DHT22;10445;50.216;7.912;2023-06-26T18:17:01;20.70;1.00
20574;DHT22;10445;50.216;7.912;2023-06-26T18:19:31;20.70;1.00
20574;DHT22;10445;50.216;7.912;2023-06-26T18:22:07;20.60;1.00
20574;DHT22;10445;50.216;7.912;2023-06-26T18:24:54;20.60;1.00
20574;DHT22;10445;50.216;7.912;2023-06-26T18:28:18;20.40;1.00
